Airfield :
LOGIN :

Register | Disclaimer

   EN    FR    IT 

 










Legend :    VFR   Marginal VFR   IFR   Intensive IFR   Very Intensive IFR
Visi :
Ceiling :
>= 8 km
>= 3000ft
5 to 8 km
1000 to 3000 ft
1500m to 5 km
500 to 1000 ft
800 to 1500m
200 to 500 ft
< 800m
< 200 ft
Symbols :   Thunderstorms  Fog  Heavy snow  Heavy precipitations  Wind > 20 kt
SIGMETs :     Misc.  Thunderstorms  Icing  Turbulence  Mountain Waves  Volcanic Ashes







- Airport Elevation : 13 ft
- IATA code : LYX
- Download approach charts


EGMD - Lydd

CURRENT METAR :
  • 170520Z AUTO 21014KT 4600 RA BKN004/// BKN011/// OVC045/// 17/17 Q1012 RERA

EXPIRED METARs :
  • 170450Z AUTO 21014KT 1500 +RA FEW004/// SCT008/// BKN012/// 18/17 Q1012
  • 170420Z AUTO 23012KT 9999 -RA BKN016/// OVC022/// 18/17 Q1013
  • 170350Z AUTO 21015KT 9999 -RA SCT020/// BKN026/// BKN031/// 19/16 Q1012
  • 170320Z AUTO 19013KT 9999 BKN036/// BKN043/// 19/16 Q1012
  • 170250Z AUTO 19012KT 9999 SCT045/// 19/16 Q1013

TAF TAF EGMD
Valid from the 17 at 06:00 until the 17 at 15:00 UTC


170500Z 1706/1715 21014KT 9999 SCT040
TEMPO 1706/1710 8000 -RA BKN014
PROB40
TEMPO 1706/1709 1500 RADZ +RA BKN004
PROB30
TEMPO 1710/1712 7000 SHRA BKN014
PROB30
TEMPO 1712/1715 7000 SHRA
ATIS : +44 1797 322 422
No reported NOTAMs for that airfield.



MET'MAP, your aeronautical weather chart ! - Copyright ORBIFLY December 2007 - Disclaimer

ORBIFLY MET'MAP TEAM :

Programming & Development : Alexandra Zaïnal
Concept & Development : Baudouin d'Aumeries
Co-Development & Prog : Marc-Olivier Méhu
Technical & hardware support : Manuel Goepfert

Contact : metmap@orbifly.com




SOURCES & CREDITS :

   NOAA